createdAt,value
2023-02-01T00:00:18.065Z,26.80
2023-02-01T00:01:17.989Z,24.80
2023-02-01T00:02:17.980Z,17.70
2023-02-01T00:03:18.040Z,22.50
2023-02-01T00:04:17.968Z,19.40
2023-02-01T00:05:17.959Z,18.90
2023-02-01T00:06:17.933Z,25.00
2023-02-01T00:07:17.914Z,26.90
2023-02-01T00:08:17.892Z,23.30
2023-02-01T00:09:17.886Z,24.30
2023-02-01T00:10:17.875Z,24.30
2023-02-01T00:11:17.873Z,22.70
2023-02-01T00:12:17.844Z,20.90
2023-02-01T00:13:17.860Z,26.50
2023-02-01T00:14:17.815Z,24.20
2023-02-01T00:15:17.834Z,21.90
2023-02-01T00:16:17.907Z,25.50
2023-02-01T00:17:17.805Z,21.50
2023-02-01T00:18:17.784Z,27.90
2023-02-01T00:19:17.755Z,23.90
2023-02-01T00:20:17.743Z,22.30
2023-02-01T00:21:17.751Z,20.30
2023-02-01T00:22:17.739Z,24.60
2023-02-01T00:23:17.736Z,24.00
2023-02-01T00:24:17.701Z,21.10
2023-02-01T00:25:17.694Z,25.00
2023-02-01T00:26:17.702Z,25.00
2023-02-01T00:27:17.675Z,25.50
2023-02-01T00:28:17.644Z,22.60
2023-02-01T00:29:17.631Z,22.90
2023-02-01T00:30:17.628Z,27.40
2023-02-01T00:31:17.727Z,24.40
2023-02-01T00:32:17.601Z,23.50
2023-02-01T00:33:17.583Z,31.40
2023-02-01T00:34:17.623Z,23.40
2023-02-01T00:35:17.570Z,26.20
2023-02-01T00:36:17.562Z,21.70
2023-02-01T00:37:17.545Z,25.30
2023-02-01T00:38:17.512Z,20.70
2023-02-01T00:39:17.532Z,25.80
2023-02-01T00:40:17.504Z,25.10
2023-02-01T00:41:17.490Z,27.10
2023-02-01T00:42:17.465Z,22.80
2023-02-01T00:43:17.476Z,22.60
2023-02-01T00:44:17.461Z,17.50
2023-02-01T00:45:17.452Z,26.40
2023-02-01T00:46:17.441Z,25.30
2023-02-01T00:47:17.415Z,18.60
2023-02-01T00:48:17.419Z,20.10
2023-02-01T00:49:17.369Z,19.60
2023-02-01T00:50:17.352Z,22.90
2023-02-01T00:51:17.359Z,15.70
2023-02-01T00:52:17.328Z,21.10
2023-02-01T00:53:17.342Z,17.50
2023-02-01T00:54:17.315Z,22.50
2023-02-01T00:55:17.313Z,21.70
2023-02-01T00:56:17.279Z,19.00
2023-02-01T00:57:17.269Z,26.00
2023-02-01T00:58:17.247Z,24.90
2023-02-01T00:59:17.273Z,23.00
2023-02-01T01:00:17.238Z,22.40
2023-02-01T01:01:17.225Z,18.00
2023-02-01T01:02:17.276Z,21.70
2023-02-01T01:03:17.213Z,22.40
2023-02-01T01:04:17.172Z,20.30
2023-02-01T01:05:17.175Z,20.40
2023-02-01T01:06:17.150Z,24.00
2023-02-01T01:07:17.133Z,20.30
2023-02-01T01:08:17.152Z,21.20
2023-02-01T01:09:17.127Z,19.60
2023-02-01T01:10:17.101Z,17.00
2023-02-01T01:11:17.083Z,18.80
2023-02-01T01:12:17.073Z,18.80
2023-02-01T01:13:17.053Z,19.00
2023-02-01T01:14:17.050Z,20.80
2023-02-01T01:15:17.040Z,19.10
2023-02-01T01:16:17.110Z,19.50
2023-02-01T01:17:17.011Z,13.90
2023-02-01T01:18:17.013Z,17.20
2023-02-01T01:19:17.001Z,18.00
2023-02-01T01:20:16.962Z,18.70
2023-02-01T01:21:16.974Z,13.50
2023-02-01T01:22:16.949Z,19.30
2023-02-01T01:23:16.950Z,20.80
2023-02-01T01:24:16.943Z,24.80
2023-02-01T01:25:16.904Z,15.70
2023-02-01T01:26:16.916Z,18.10
2023-02-01T01:27:16.876Z,15.70
2023-02-01T01:28:16.886Z,19.50
2023-02-01T01:29:16.855Z,20.20
2023-02-01T01:30:16.856Z,20.30
2023-02-01T01:31:16.902Z,19.40
2023-02-01T01:32:16.819Z,17.20
2023-02-01T01:33:16.814Z,15.50
2023-02-01T01:34:16.800Z,16.90
2023-02-01T01:35:16.790Z,19.70
2023-02-01T01:36:16.761Z,15.90
2023-02-01T01:37:16.750Z,11.80
2023-02-01T01:38:16.732Z,16.50
2023-02-01T01:39:16.718Z,21.90
2023-02-01T01:40:16.737Z,24.20
2023-02-01T01:41:16.696Z,17.30
2023-02-01T01:42:16.693Z,20.40
2023-02-01T01:43:16.702Z,19.20
2023-02-01T01:44:16.651Z,18.10
2023-02-01T01:45:16.645Z,17.40
2023-02-01T01:46:16.664Z,23.60
2023-02-01T01:47:16.657Z,16.40
2023-02-01T01:48:16.602Z,19.80
2023-02-01T01:49:16.608Z,27.70
2023-02-01T01:50:16.590Z,22.40
2023-02-01T01:51:16.587Z,18.40
2023-02-01T01:52:16.547Z,15.50
2023-02-01T01:53:16.548Z,18.40
2023-02-01T01:54:16.555Z,17.50
2023-02-01T01:55:16.519Z,20.50
2023-02-01T01:56:16.563Z,19.20
2023-02-01T01:57:16.519Z,21.80
2023-02-01T01:58:16.505Z,20.60
2023-02-01T01:59:16.465Z,18.60
2023-02-01T02:00:16.462Z,18.60
2023-02-01T02:01:16.462Z,19.70
2023-02-01T02:02:16.472Z,19.10
2023-02-01T02:03:16.423Z,18.60
2023-02-01T02:04:16.398Z,19.70
2023-02-01T02:05:16.387Z,16.80
2023-02-01T02:06:16.369Z,20.60
2023-02-01T02:07:16.363Z,20.40
2023-02-01T02:08:16.345Z,24.50
2023-02-01T02:09:16.369Z,18.10
2023-02-01T02:10:16.318Z,18.70
2023-02-01T02:11:16.324Z,22.80
2023-02-01T02:12:16.318Z,16.20
2023-02-01T02:13:16.277Z,17.90
2023-02-01T02:14:16.308Z,14.80
2023-02-01T02:15:16.282Z,14.30
2023-02-01T02:16:16.294Z,19.00
2023-02-01T02:17:16.230Z,19.20
2023-02-01T02:18:16.215Z,20.30
2023-02-01T02:19:16.206Z,18.90
2023-02-01T02:20:16.198Z,17.00
2023-02-01T02:21:16.216Z,26.60
2023-02-01T02:22:16.176Z,25.00
2023-02-01T02:23:16.173Z,16.60
2023-02-01T02:24:16.135Z,22.80
2023-02-01T02:25:16.163Z,25.20
2023-02-01T02:26:16.185Z,17.50
2023-02-01T02:27:16.131Z,17.80
2023-02-01T02:28:16.079Z,21.50
2023-02-01T02:29:16.077Z,20.50
2023-02-01T02:30:16.103Z,19.70
2023-02-01T02:31:16.155Z,19.00
2023-02-01T02:32:16.059Z,17.90
2023-02-01T02:33:16.028Z,16.30
2023-02-01T02:34:16.021Z,21.20
2023-02-01T02:35:16.027Z,19.80
2023-02-01T02:36:15.992Z,21.60
2023-02-01T02:37:15.974Z,18.10
2023-02-01T02:38:15.970Z,24.80
2023-02-01T02:39:15.968Z,26.80
2023-02-01T02:40:15.933Z,21.40
2023-02-01T02:41:15.917Z,22.20
2023-02-01T02:42:15.900Z,18.40
2023-02-01T02:43:15.915Z,21.30
2023-02-01T02:44:15.907Z,13.80
2023-02-01T02:45:15.923Z,18.50
2023-02-01T02:46:15.866Z,19.60
2023-02-01T02:47:15.860Z,21.00
2023-02-01T02:48:15.830Z,19.00
2023-02-01T02:49:15.837Z,20.90
2023-02-01T02:50:15.801Z,19.10
2023-02-01T02:51:15.802Z,19.10
2023-02-01T02:52:15.777Z,20.00
2023-02-01T02:53:15.988Z,25.70
2023-02-01T02:54:15.761Z,17.80
2023-02-01T02:55:15.769Z,19.70
2023-02-01T02:56:15.723Z,19.60
2023-02-01T02:57:15.711Z,21.40
2023-02-01T02:58:15.716Z,18.70
2023-02-01T02:59:15.720Z,21.70
2023-02-01T03:00:15.687Z,20.00
2023-02-01T03:01:15.726Z,23.10
2023-02-01T03:02:15.724Z,21.00
2023-02-01T03:03:15.652Z,19.60
2023-02-01T03:04:15.635Z,21.60
2023-02-01T03:05:20.051Z,19.60
2023-02-01T03:06:15.624Z,22.20
2023-02-01T03:07:15.598Z,18.30
2023-02-01T03:08:15.575Z,20.60
2023-02-01T03:09:15.555Z,24.20
2023-02-01T03:10:15.541Z,22.30
2023-02-01T03:11:15.542Z,21.90
2023-02-01T03:12:15.521Z,25.60
2023-02-01T03:13:15.517Z,24.50
2023-02-01T03:14:15.521Z,20.40
2023-02-01T03:15:15.505Z,24.50
2023-02-01T03:16:15.526Z,21.80
2023-02-01T03:17:15.491Z,23.20
2023-02-01T03:18:15.485Z,23.10
2023-02-01T03:19:15.480Z,18.70
2023-02-01T03:20:15.412Z,25.50
2023-02-01T03:21:15.416Z,22.40
2023-02-01T03:22:15.435Z,17.10
2023-02-01T03:23:15.435Z,24.80
2023-02-01T03:24:15.391Z,23.40
2023-02-01T03:25:15.356Z,19.60
2023-02-01T03:26:15.383Z,20.70
2023-02-01T03:27:15.491Z,16.70
2023-02-01T03:28:15.329Z,20.30
2023-02-01T03:29:15.334Z,22.70
2023-02-01T03:30:15.300Z,23.30
2023-02-01T03:31:15.292Z,22.80
2023-02-01T03:32:15.308Z,24.40
2023-02-01T03:33:15.270Z,22.60
2023-02-01T03:34:15.243Z,20.80
2023-02-01T03:35:15.231Z,29.10
2023-02-01T03:36:15.205Z,20.10
2023-02-01T03:37:15.204Z,21.30
2023-02-01T03:38:15.190Z,25.50
2023-02-01T03:39:15.193Z,22.50
2023-02-01T03:40:15.151Z,24.10
2023-02-01T03:41:15.155Z,18.00
2023-02-01T03:42:15.147Z,24.80
2023-02-01T03:43:15.135Z,18.50
2023-02-01T03:44:15.177Z,23.30
2023-02-01T03:45:15.134Z,21.10
2023-02-01T03:46:15.129Z,23.70
2023-02-01T03:47:15.143Z,28.70
2023-02-01T03:48:15.071Z,26.80
2023-02-01T03:49:15.078Z,25.10
2023-02-01T03:50:15.050Z,24.50
2023-02-01T03:51:15.024Z,20.70
2023-02-01T03:52:15.038Z,20.60
2023-02-01T03:53:15.012Z,26.50
2023-02-01T03:54:14.982Z,20.60
2023-02-01T03:55:14.987Z,18.50
2023-02-01T03:56:14.945Z,22.40
2023-02-01T03:57:14.961Z,21.40
2023-02-01T03:58:14.983Z,21.20
2023-02-01T03:59:14.927Z,19.10
2023-02-01T04:00:14.918Z,20.60
2023-02-01T04:01:14.975Z,22.60
2023-02-01T04:02:14.950Z,23.70
2023-02-01T04:03:14.866Z,22.50
2023-02-01T04:04:14.862Z,16.40
2023-02-01T04:05:14.842Z,21.10
2023-02-01T04:06:14.854Z,25.50
2023-02-01T04:07:14.826Z,21.60
2023-02-01T04:08:14.807Z,18.60
2023-02-01T04:09:14.790Z,17.90
2023-02-01T04:10:14.773Z,15.60
2023-02-01T04:11:14.772Z,26.10
2023-02-01T04:12:14.757Z,20.00
2023-02-01T04:13:14.739Z,23.10
2023-02-01T04:14:14.715Z,24.90
2023-02-01T04:15:14.756Z,17.90
2023-02-01T04:16:14.791Z,26.30
2023-02-01T04:17:14.708Z,24.00
2023-02-01T04:18:14.689Z,23.20
2023-02-01T04:19:14.666Z,22.30
2023-02-01T04:20:14.659Z,21.20
2023-02-01T04:21:14.645Z,22.20
2023-02-01T04:22:50.734Z,22.00
2023-02-01T04:23:51.735Z,22.10
2023-02-01T04:24:51.719Z,26.70
2023-02-01T04:25:51.713Z,17.80
2023-02-01T04:26:51.766Z,28.90
2023-02-01T04:27:51.675Z,21.40
2023-02-01T04:28:51.672Z,25.30
2023-02-01T04:29:51.657Z,17.90
2023-02-01T04:30:51.713Z,25.60
2023-02-01T04:31:51.762Z,20.90
2023-02-01T04:32:51.633Z,18.60
2023-02-01T04:33:51.620Z,25.70
2023-02-01T04:34:51.583Z,24.50
2023-02-01T04:35:51.574Z,19.60
2023-02-01T04:36:51.570Z,18.70
2023-02-01T04:37:51.581Z,24.40
2023-02-01T04:38:51.547Z,21.60
2023-02-01T04:39:51.516Z,27.10
2023-02-01T04:40:51.515Z,24.70
2023-02-01T04:41:51.486Z,24.10
2023-02-01T04:42:51.501Z,26.60
2023-02-01T04:43:51.491Z,19.20
2023-02-01T04:44:51.467Z,18.90
2023-02-01T04:45:51.501Z,31.50
2023-02-01T04:46:51.437Z,19.00
2023-02-01T04:47:51.440Z,25.50
2023-02-01T04:48:51.409Z,24.50
2023-02-01T04:49:51.391Z,20.20
2023-02-01T04:50:51.397Z,25.60
2023-02-01T04:51:51.373Z,30.80
2023-02-01T04:52:51.354Z,22.80
2023-02-01T04:53:51.337Z,19.70
2023-02-01T04:54:51.363Z,20.90
2023-02-01T04:55:51.331Z,18.10
2023-02-01T04:56:51.293Z,23.80
2023-02-01T04:57:51.287Z,22.70
2023-02-01T04:58:51.297Z,22.20
2023-02-01T04:59:51.275Z,19.90
2023-02-01T05:00:51.243Z,20.60
2023-02-01T05:01:51.232Z,24.90
2023-02-01T05:02:51.218Z,19.20
2023-02-01T05:03:51.227Z,20.40
2023-02-01T05:04:51.207Z,23.90
2023-02-01T05:05:51.206Z,24.30
2023-02-01T05:06:51.170Z,19.70
2023-02-01T05:07:51.154Z,22.00
2023-02-01T05:08:51.151Z,18.70
2023-02-01T05:09:51.167Z,26.10
2023-02-01T05:10:51.112Z,24.10
2023-02-01T05:11:51.093Z,21.60
2023-02-01T05:12:51.087Z,19.80
2023-02-01T05:13:51.071Z,23.60
2023-02-01T05:14:51.062Z,18.60
2023-02-01T05:15:51.090Z,24.80
2023-02-01T05:16:51.063Z,24.30
2023-02-01T05:17:51.045Z,21.20
2023-02-01T05:18:51.001Z,23.00
2023-02-01T05:19:50.997Z,17.90
2023-02-01T05:20:51.004Z,24.40
2023-02-01T05:21:50.985Z,29.20
2023-02-01T05:22:50.959Z,20.30
2023-02-01T05:23:50.954Z,24.00
2023-02-01T05:24:50.933Z,22.10
2023-02-01T05:25:50.929Z,22.30
2023-02-01T05:26:50.979Z,25.00
2023-02-01T05:27:50.883Z,21.70
2023-02-01T05:28:50.888Z,21.60
2023-02-01T05:29:50.861Z,23.00
2023-02-01T05:30:50.915Z,23.00
2023-02-01T05:31:50.999Z,27.00
2023-02-01T05:32:50.842Z,27.90
2023-02-01T05:33:50.822Z,22.30
2023-02-01T05:34:50.827Z,17.00
2023-02-01T05:35:50.792Z,17.70
2023-02-01T05:36:50.773Z,17.60
2023-02-01T05:37:50.792Z,25.60
2023-02-01T05:38:50.746Z,16.80
2023-02-01T05:39:50.766Z,20.40
2023-02-01T05:40:50.795Z,18.20
2023-02-01T05:41:50.728Z,20.60
2023-02-01T05:42:50.686Z,25.30
2023-02-01T05:43:50.672Z,24.80
2023-02-01T05:44:50.674Z,25.80
2023-02-01T05:45:50.672Z,24.70
2023-02-01T05:46:50.631Z,21.20
2023-02-01T05:47:50.644Z,20.10
2023-02-01T05:48:50.612Z,16.10
2023-02-01T05:49:50.601Z,27.30
2023-02-01T05:50:50.581Z,23.00
2023-02-01T05:51:50.585Z,25.80
2023-02-01T05:52:50.580Z,27.10
2023-02-01T05:53:50.616Z,22.80
2023-02-01T05:54:50.563Z,22.90
2023-02-01T05:55:50.536Z,24.30
2023-02-01T05:56:50.513Z,19.60
2023-02-01T05:57:50.510Z,22.20
2023-02-01T05:58:50.493Z,21.70
2023-02-01T05:59:50.517Z,21.70
2023-02-01T06:00:50.447Z,19.30
2023-02-01T06:01:50.447Z,23.30
2023-02-01T06:02:50.435Z,24.90
2023-02-01T06:03:50.476Z,19.10
2023-02-01T06:04:50.414Z,17.60
2023-02-01T06:05:50.414Z,28.50
2023-02-01T06:06:50.385Z,19.20
2023-02-01T06:07:50.349Z,19.90
2023-02-01T06:08:50.382Z,18.70
2023-02-01T06:09:50.345Z,23.30
2023-02-01T06:10:50.397Z,19.40
2023-02-01T06:11:50.332Z,23.50
2023-02-01T06:12:50.292Z,22.30
2023-02-01T06:13:50.288Z,17.70
2023-02-01T06:14:50.277Z,28.90
2023-02-01T06:15:50.337Z,19.20
2023-02-01T06:16:50.240Z,21.70
2023-02-01T06:17:50.230Z,14.30
2023-02-01T06:18:50.227Z,24.50
2023-02-01T06:19:50.337Z,22.40
2023-02-01T06:20:50.222Z,22.40
2023-02-01T06:21:50.224Z,18.60
2023-02-01T06:22:50.154Z,18.80
2023-02-01T06:23:50.154Z,23.90
2023-02-01T06:24:50.148Z,21.40
2023-02-01T06:25:50.130Z,24.90
2023-02-01T06:26:50.171Z,25.90
2023-02-01T06:27:50.108Z,28.90
2023-02-01T06:28:50.098Z,20.00
2023-02-01T06:29:50.093Z,23.40
2023-02-01T06:30:50.095Z,16.60
2023-02-01T06:31:50.107Z,24.50
2023-02-01T06:32:50.054Z,23.90
2023-02-01T06:33:50.022Z,20.60
2023-02-01T06:34:49.996Z,20.30
2023-02-01T06:35:49.981Z,21.00
2023-02-01T06:36:49.992Z,27.80
2023-02-01T06:37:49.982Z,21.50
2023-02-01T06:38:49.997Z,18.90
2023-02-01T06:39:49.954Z,21.20
2023-02-01T06:40:49.945Z,22.30
2023-02-01T06:41:49.919Z,26.30
2023-02-01T06:42:49.996Z,22.50
2023-02-01T06:43:49.920Z,18.80
2023-02-01T06:44:49.874Z,26.20
2023-02-01T06:45:49.871Z,19.50
2023-02-01T06:46:49.919Z,24.10
2023-02-01T06:47:49.825Z,20.30
2023-02-01T06:48:49.840Z,31.00
2023-02-01T06:49:49.795Z,17.10
2023-02-01T06:50:49.812Z,21.10
2023-02-01T06:51:49.781Z,21.10
2023-02-01T06:52:49.765Z,26.30
2023-02-01T06:53:49.769Z,24.40
2023-02-01T06:54:49.750Z,26.10
2023-02-01T06:55:49.720Z,21.10
2023-02-01T06:56:49.710Z,27.50
2023-02-01T06:57:49.691Z,19.20
2023-02-01T06:58:49.695Z,20.40
2023-02-01T06:59:49.693Z,25.40
2023-02-01T07:00:49.691Z,21.10
2023-02-01T07:01:49.702Z,17.90
2023-02-01T07:02:49.640Z,31.20
2023-02-01T07:03:49.667Z,14.50
2023-02-01T07:04:49.619Z,23.20
2023-02-01T07:05:49.604Z,19.50
2023-02-01T07:06:49.632Z,18.80
2023-02-01T07:07:49.587Z,26.30
2023-02-01T07:08:49.590Z,20.50
2023-02-01T07:09:49.563Z,21.40
2023-02-01T07:10:49.567Z,25.90
2023-02-01T07:11:49.511Z,16.40
2023-02-01T07:12:49.504Z,24.20
2023-02-01T07:13:49.497Z,16.20
2023-02-01T07:14:49.479Z,20.10
2023-02-01T07:15:49.466Z,17.20
2023-02-01T07:16:49.447Z,22.50
2023-02-01T07:17:49.426Z,19.40
2023-02-01T07:18:49.434Z,19.80
2023-02-01T07:19:49.411Z,21.60
2023-02-01T07:20:49.412Z,20.90
2023-02-01T07:21:49.426Z,21.40
2023-02-01T07:22:49.367Z,14.80
2023-02-01T07:23:49.370Z,20.30
2023-02-01T07:24:49.432Z,19.90
2023-02-01T07:25:49.330Z,22.30
2023-02-01T07:26:49.329Z,19.90
2023-02-01T07:27:49.297Z,17.50
2023-02-01T07:28:49.323Z,12.90
2023-02-01T07:29:49.287Z,22.70
2023-02-01T07:30:49.315Z,26.50
2023-02-01T07:31:49.243Z,23.80
2023-02-01T07:32:49.280Z,17.00
2023-02-01T07:33:49.213Z,17.10
2023-02-01T07:34:49.210Z,19.60
2023-02-01T07:35:49.195Z,20.70
2023-02-01T07:36:49.198Z,23.20
2023-02-01T07:37:49.181Z,18.60
2023-02-01T07:38:49.153Z,30.50
2023-02-01T07:39:49.146Z,22.40
2023-02-01T07:40:49.153Z,19.90
2023-02-01T07:41:49.127Z,25.30
2023-02-01T07:42:49.107Z,26.70
2023-02-01T07:43:49.086Z,22.40
2023-02-01T07:44:49.100Z,21.50
2023-02-01T07:45:49.079Z,19.70
2023-02-01T07:46:49.049Z,26.30
2023-02-01T07:47:49.038Z,15.30
2023-02-01T07:48:49.022Z,18.40
2023-02-01T07:49:49.031Z,22.20
2023-02-01T07:50:49.008Z,18.80
2023-02-01T07:51:49.005Z,18.40
2023-02-01T07:52:48.989Z,21.60
2023-02-01T07:53:48.958Z,20.90
2023-02-01T07:54:48.993Z,24.20
2023-02-01T07:55:48.942Z,26.90
2023-02-01T07:56:48.960Z,19.70
2023-02-01T07:57:48.904Z,24.30
2023-02-01T07:58:48.912Z,21.00
2023-02-01T07:59:48.888Z,17.10
2023-02-01T08:00:48.985Z,20.40
2023-02-01T08:01:48.876Z,18.90
2023-02-01T08:02:48.848Z,22.00
2023-02-01T08:03:48.844Z,26.00
2023-02-01T08:04:48.837Z,28.20
2023-02-01T08:05:48.810Z,19.80
2023-02-01T08:06:48.810Z,13.60
2023-02-01T08:07:48.809Z,19.30
2023-02-01T08:08:48.777Z,15.80
2023-02-01T08:09:48.771Z,14.40
2023-02-01T08:10:48.743Z,21.70
2023-02-01T08:11:48.738Z,23.50
2023-02-01T08:12:48.793Z,18.10
2023-02-01T08:13:48.704Z,22.10
2023-02-01T08:14:48.688Z,19.00
2023-02-01T08:15:48.678Z,17.90
2023-02-01T08:16:48.753Z,17.70
2023-02-01T08:17:48.667Z,19.80
2023-02-01T08:18:48.644Z,17.30
2023-02-01T08:19:48.624Z,15.30
2023-02-01T08:20:48.619Z,19.80
2023-02-01T08:21:48.587Z,21.10
2023-02-01T08:22:48.601Z,17.70
2023-02-01T08:23:48.577Z,16.10
2023-02-01T08:24:48.567Z,17.20
2023-02-01T08:25:48.556Z,22.20
2023-02-01T08:26:48.578Z,18.30
2023-02-01T08:27:48.526Z,16.90
2023-02-01T08:28:48.521Z,16.80
2023-02-01T08:29:48.487Z,22.30
2023-02-01T08:30:48.513Z,16.50
2023-02-01T08:31:48.571Z,15.10
2023-02-01T08:32:48.470Z,14.20
2023-02-01T08:33:48.458Z,14.80
2023-02-01T08:34:48.421Z,16.90
2023-02-01T08:35:48.426Z,19.30
2023-02-01T08:36:48.401Z,18.00
2023-02-01T08:37:48.396Z,19.20
2023-02-01T08:38:48.398Z,17.70
2023-02-01T08:39:48.359Z,12.50
2023-02-01T08:40:48.380Z,22.00
2023-02-01T08:41:48.332Z,19.80
2023-02-01T08:42:48.328Z,15.00
2023-02-01T08:43:48.318Z,14.90
2023-02-01T08:44:48.342Z,17.00
2023-02-01T08:45:48.278Z,16.40
2023-02-01T08:46:48.290Z,20.00
2023-02-01T08:47:48.251Z,16.80
2023-02-01T08:48:48.236Z,17.90
2023-02-01T08:49:48.246Z,18.60
2023-02-01T08:50:48.244Z,15.50
2023-02-01T08:51:48.223Z,20.70
2023-02-01T08:52:48.181Z,21.10
2023-02-01T08:53:48.172Z,20.10
2023-02-01T08:54:48.199Z,15.70
2023-02-01T08:55:48.145Z,15.90
2023-02-01T08:56:48.228Z,14.40
2023-02-01T08:57:48.124Z,21.10
2023-02-01T08:58:48.101Z,18.40
2023-02-01T08:59:48.116Z,18.70
2023-02-01T09:00:48.096Z,18.80
2023-02-01T09:01:48.094Z,14.40
2023-02-01T09:02:48.095Z,11.80
2023-02-01T09:03:48.131Z,14.20
2023-02-01T09:04:48.052Z,19.80
2023-02-01T09:05:50.022Z,15.50
2023-02-01T09:06:48.027Z,9.00
2023-02-01T09:07:48.008Z,8.20
2023-02-01T09:08:47.997Z,8.40
2023-02-01T09:09:47.993Z,10.40
2023-02-01T09:10:47.984Z,7.90
2023-02-01T09:11:47.951Z,8.20
2023-02-01T09:12:47.946Z,6.80
2023-02-01T09:13:47.965Z,7.80
2023-02-01T09:14:47.938Z,8.60
2023-02-01T09:15:48.134Z,7.80
2023-02-01T09:16:47.904Z,6.20
2023-02-01T09:17:47.892Z,7.70
2023-02-01T09:19:01.576Z,5.00
2023-02-01T09:19:47.915Z,7.10
2023-02-01T09:20:47.833Z,7.10
2023-02-01T09:21:47.810Z,7.00
2023-02-01T09:22:47.840Z,12.50
2023-02-01T09:23:47.819Z,5.60
2023-02-01T09:24:47.857Z,4.70
2023-02-01T09:25:47.792Z,2.90
2023-02-01T09:26:47.846Z,5.50
2023-02-01T09:27:47.732Z,7.50
2023-02-01T09:28:47.778Z,6.80
2023-02-01T09:29:47.766Z,2.90
2023-02-01T09:30:47.900Z,3.60
2023-02-01T09:31:57.583Z,5.50
2023-02-01T09:32:47.734Z,4.80
2023-02-01T09:33:47.916Z,4.60
2023-02-01T09:34:47.632Z,4.50
2023-02-01T09:35:47.646Z,4.10
2023-02-01T09:36:47.657Z,6.60
2023-02-01T09:37:47.618Z,4.20
2023-02-01T09:38:52.757Z,7.30
2023-02-01T09:39:47.593Z,3.00
2023-02-01T09:40:47.620Z,3.70
2023-02-01T09:41:47.570Z,5.50
2023-02-01T09:42:47.528Z,5.00
2023-02-01T09:43:47.531Z,3.00
2023-02-01T09:44:47.520Z,3.10
2023-02-01T09:45:47.496Z,4.00
2023-02-01T09:46:47.494Z,6.20
2023-02-01T09:47:47.470Z,5.00
2023-02-01T09:48:47.448Z,7.00
2023-02-01T09:49:47.430Z,4.50
2023-02-01T09:50:47.440Z,7.80
2023-02-01T09:51:47.422Z,5.60
2023-02-01T09:52:47.399Z,3.60
2023-02-01T09:53:47.394Z,5.40
2023-02-01T09:54:47.382Z,4.90
2023-02-01T09:55:47.369Z,3.10
2023-02-01T09:56:47.354Z,5.80
2023-02-01T09:57:47.429Z,3.60
2023-02-01T09:58:47.336Z,7.40
2023-02-01T09:59:47.312Z,5.30
2023-02-01T10:00:47.287Z,4.40
2023-02-01T10:01:47.366Z,3.60
2023-02-01T10:02:47.289Z,4.30
2023-02-01T10:03:47.311Z,3.50
2023-02-01T10:04:47.262Z,2.70
2023-02-01T10:05:47.221Z,5.50
2023-02-01T10:06:47.233Z,4.60
2023-02-01T10:07:47.244Z,5.40
2023-02-01T10:08:47.187Z,5.70
2023-02-01T10:09:47.197Z,3.90
2023-02-01T10:10:47.166Z,5.00
2023-02-01T10:11:47.139Z,9.50
2023-02-01T10:12:47.278Z,3.30
2023-02-01T10:13:47.136Z,4.10
2023-02-01T10:14:47.123Z,4.20
2023-02-01T10:15:47.151Z,4.30
2023-02-01T10:16:47.324Z,8.70
2023-02-01T10:17:47.099Z,5.00
2023-02-01T10:18:47.077Z,4.80
2023-02-01T10:19:47.056Z,6.80
2023-02-01T10:20:47.025Z,5.60
2023-02-01T10:21:47.007Z,6.30
2023-02-01T10:23:47.033Z,7.30
2023-02-01T10:24:46.977Z,5.50
2023-02-01T10:25:47.001Z,6.40
2023-02-01T10:26:47.041Z,7.40
2023-02-01T10:27:46.967Z,6.70
2023-02-01T10:28:46.933Z,6.20
2023-02-01T10:29:46.963Z,5.70
2023-02-01T10:30:47.001Z,6.70
2023-02-01T10:31:46.998Z,9.90
2023-02-01T10:32:46.882Z,5.90
2023-02-01T10:33:46.871Z,4.70
2023-02-01T10:34:46.860Z,6.80
2023-02-01T10:35:46.864Z,5.60
2023-02-01T10:36:46.813Z,7.00
2023-02-01T10:37:46.828Z,5.70
2023-02-01T10:38:46.795Z,6.40
2023-02-01T10:39:46.802Z,5.90
2023-02-01T10:40:46.772Z,4.30
2023-02-01T10:41:46.782Z,5.20
2023-02-01T10:42:46.756Z,5.50
2023-02-01T10:43:46.744Z,6.10
2023-02-01T10:44:46.733Z,6.90
2023-02-01T10:45:46.724Z,5.00
2023-02-01T10:46:46.713Z,6.50
2023-02-01T10:47:46.706Z,6.30
2023-02-01T10:48:46.660Z,4.90
2023-02-01T10:49:46.651Z,7.70
2023-02-01T10:50:46.636Z,7.60
2023-02-01T10:51:46.656Z,9.20
2023-02-01T10:52:46.615Z,4.50
2023-02-01T10:53:46.616Z,10.60
2023-02-01T10:54:46.579Z,8.20
2023-02-01T10:55:46.572Z,6.50
2023-02-01T10:56:46.578Z,7.10
2023-02-01T10:57:46.561Z,6.70
2023-02-01T10:58:46.537Z,6.60
2023-02-01T10:59:46.532Z,8.20
2023-02-01T11:00:46.502Z,9.80
2023-02-01T11:01:46.563Z,5.60
2023-02-01T11:02:46.526Z,7.70
2023-02-01T11:03:46.489Z,5.10
2023-02-01T11:04:46.480Z,8.30
2023-02-01T11:05:46.476Z,7.50
2023-02-01T11:06:46.432Z,5.30
2023-02-01T11:07:46.416Z,7.70
2023-02-01T11:08:46.431Z,5.70
2023-02-01T11:09:46.429Z,9.20
2023-02-01T11:10:46.440Z,7.00
2023-02-01T11:11:46.374Z,7.00
2023-02-01T11:12:46.355Z,7.90
2023-02-01T11:13:46.326Z,7.50
2023-02-01T11:14:46.324Z,6.10
2023-02-01T11:15:46.322Z,13.90
2023-02-01T11:16:46.298Z,7.60
2023-02-01T11:17:46.295Z,8.50
2023-02-01T11:18:46.312Z,7.90
2023-02-01T11:19:46.292Z,10.10
2023-02-01T11:20:46.226Z,7.90
2023-02-01T11:21:46.219Z,9.80
2023-02-01T11:22:46.225Z,8.70
2023-02-01T11:23:46.227Z,9.90
2023-02-01T11:24:46.201Z,8.30
2023-02-01T11:25:46.188Z,9.50
2023-02-01T11:26:46.179Z,10.00
2023-02-01T11:27:54.836Z,9.70
2023-02-01T11:28:46.127Z,7.90
2023-02-01T11:29:46.120Z,7.00
2023-02-01T11:30:46.156Z,10.20
2023-02-01T11:31:46.212Z,11.40
2023-02-01T11:32:46.099Z,7.70
2023-02-01T11:33:46.077Z,11.40
2023-02-01T11:34:46.063Z,10.40
2023-02-01T11:35:46.046Z,7.10
2023-02-01T11:36:46.032Z,6.80
2023-02-01T11:37:46.006Z,9.40
2023-02-01T11:38:45.990Z,10.40
2023-02-01T11:39:45.993Z,11.90
2023-02-01T11:40:45.985Z,8.20
2023-02-01T11:41:45.982Z,12.40
2023-02-01T11:42:45.962Z,6.90
2023-02-01T11:43:45.944Z,10.00
2023-02-01T11:44:45.942Z,11.30
2023-02-01T11:45:45.929Z,10.20
2023-02-01T11:46:45.940Z,9.90
2023-02-01T11:47:45.902Z,8.10
2023-02-01T11:48:45.890Z,7.00
2023-02-01T11:49:45.875Z,9.30
2023-02-01T11:50:45.840Z,7.60
2023-02-01T11:51:45.844Z,11.30
2023-02-01T11:52:45.872Z,16.30
2023-02-01T11:53:45.812Z,12.60
2023-02-01T11:54:45.796Z,8.70
2023-02-01T11:55:45.838Z,10.90
2023-02-01T11:56:45.790Z,8.20
2023-02-01T11:57:45.789Z,10.90
2023-02-01T11:58:45.770Z,9.30
2023-02-01T11:59:51.649Z,10.50
2023-02-01T12:00:45.720Z,9.50
2023-02-01T12:01:45.755Z,10.90
2023-02-01T12:02:46.853Z,8.70
2023-02-01T12:03:45.671Z,13.40
2023-02-01T12:04:45.662Z,10.50
2023-02-01T12:05:45.637Z,9.30
2023-02-01T12:06:45.619Z,9.00
2023-02-01T12:07:45.612Z,8.80
2023-02-01T12:08:46.097Z,8.40
2023-02-01T12:09:45.612Z,11.40
2023-02-01T12:10:45.571Z,7.20
2023-02-01T12:11:45.572Z,7.50
2023-02-01T12:12:45.646Z,8.10
2023-02-01T12:13:45.558Z,10.40
2023-02-01T12:14:45.521Z,10.60
2023-02-01T12:15:45.728Z,9.10
2023-02-01T12:16:45.548Z,8.50
2023-02-01T12:17:45.482Z,6.60
2023-02-01T12:18:45.462Z,9.40
2023-02-01T12:19:45.490Z,9.30
2023-02-01T12:20:45.455Z,8.70
2023-02-01T12:21:45.454Z,6.60
2023-02-01T12:22:45.433Z,8.60
2023-02-01T12:23:45.454Z,10.80
2023-02-01T12:24:45.428Z,11.60
2023-02-01T12:25:45.382Z,15.00
2023-02-01T12:26:45.448Z,7.70
2023-02-01T12:27:45.371Z,11.90
2023-02-01T12:28:45.383Z,8.70
2023-02-01T12:29:45.583Z,8.10
2023-02-01T12:30:45.379Z,7.80
2023-02-01T12:31:47.288Z,9.70
2023-02-01T12:32:45.315Z,13.30
2023-02-01T12:33:45.272Z,17.20
2023-02-01T12:34:45.281Z,7.40
2023-02-01T12:35:45.272Z,8.90
2023-02-01T12:36:45.249Z,13.80
2023-02-01T12:37:45.297Z,10.40
2023-02-01T12:38:45.272Z,11.20
2023-02-01T12:39:45.195Z,11.90
2023-02-01T12:40:45.204Z,7.80
2023-02-01T12:41:45.195Z,9.90
2023-02-01T12:42:45.169Z,10.00
2023-02-01T12:43:45.150Z,9.70
2023-02-01T12:44:45.141Z,6.40
2023-02-01T12:45:45.134Z,11.70
2023-02-01T12:46:45.120Z,9.70
2023-02-01T12:47:45.105Z,11.00
2023-02-01T12:48:45.088Z,9.30
2023-02-01T12:49:45.083Z,10.00
2023-02-01T12:50:45.049Z,5.20
2023-02-01T12:51:45.035Z,11.10
2023-02-01T12:52:45.052Z,8.80
2023-02-01T12:53:46.891Z,12.20
2023-02-01T12:54:45.002Z,10.80
2023-02-01T12:55:44.995Z,6.80
2023-02-01T12:56:44.969Z,12.30
2023-02-01T12:57:44.976Z,11.20
2023-02-01T12:58:44.953Z,9.60
2023-02-01T12:59:44.955Z,10.80